sensor_id;sensor_type;location;lat;lon;timestamp;pressure;altitude;pressure_sealevel;temperature;humidity
53671;BME280;39571;48.612;8.088;2022-10-18T00:01:49;100699.25;;;22.25;61.98
53671;BME280;39571;48.612;8.088;2022-10-18T00:04:14;100701.91;;;22.25;62.15
53671;BME280;39571;48.612;8.088;2022-10-18T00:06:40;100695.69;;;22.25;61.97
53671;BME280;39571;48.612;8.088;2022-10-18T00:09:05;100687.94;;;22.20;62.00
53671;BME280;39571;48.612;8.088;2022-10-18T00:11:30;100689.66;;;22.21;62.04
53671;BME280;39571;48.612;8.088;2022-10-18T00:13:56;100678.97;;;22.21;61.88
53671;BME280;39571;48.612;8.088;2022-10-18T00:16:22;100685.19;;;22.22;61.99
53671;BME280;39571;48.612;8.088;2022-10-18T00:18:48;100681.72;;;22.20;61.89
53671;BME280;39571;48.612;8.088;2022-10-18T00:21:19;100674.72;;;22.17;62.02
53671;BME280;39571;48.612;8.088;2022-10-18T00:23:46;100691.44;;;22.21;61.98
53671;BME280;39571;48.612;8.088;2022-10-18T00:26:17;100684.44;;;22.18;61.98
53671;BME280;39571;48.612;8.088;2022-10-18T00:28:43;100682.72;;;22.17;62.09
53671;BME280;39571;48.612;8.088;2022-10-18T00:31:21;100686.50;;;22.13;62.24
53671;BME280;39571;48.612;8.088;2022-10-18T00:33:53;100689.00;;;22.16;62.06
53671;BME280;39571;48.612;8.088;2022-10-18T00:36:19;100689.78;;;22.18;62.05
53671;BME280;39571;48.612;8.088;2022-10-18T00:38:45;100688.06;;;22.17;62.02
53671;BME280;39571;48.612;8.088;2022-10-18T00:41:14;100688.19;;;22.14;62.08
53671;BME280;39571;48.612;8.088;2022-10-18T00:46:28;100692.59;;;22.15;62.14
53671;BME280;39571;48.612;8.088;2022-10-18T00:48:56;100688.34;;;22.11;62.12
53671;BME280;39571;48.612;8.088;2022-10-18T00:51:26;100696.28;;;22.12;62.09
53671;BME280;39571;48.612;8.088;2022-10-18T00:53:52;100693.66;;;22.11;62.17
53671;BME280;39571;48.612;8.088;2022-10-18T00:56:18;100691.69;;;22.16;61.91
53671;BME280;39571;48.612;8.088;2022-10-18T00:58:45;100692.59;;;22.15;61.88
53671;BME280;39571;48.612;8.088;2022-10-18T01:01:11;100688.34;;;22.11;62.14
53671;BME280;39571;48.612;8.088;2022-10-18T01:03:37;100693.66;;;22.11;61.91
53671;BME280;39571;48.612;8.088;2022-10-18T01:06:02;100684.88;;;22.09;62.05
53671;BME280;39571;48.612;8.088;2022-10-18T01:19:37;100694.34;;;22.16;61.87
53671;BME280;39571;48.612;8.088;2022-10-18T01:22:21;100692.59;;;22.15;62.02
53671;BME280;39571;48.612;8.088;2022-10-18T01:25:00;100692.59;;;22.15;62.01
53671;BME280;39571;48.612;8.088;2022-10-18T01:27:34;100687.31;;;22.13;62.01
53671;BME280;39571;48.612;8.088;2022-10-18T01:30:55;100696.06;;;22.17;61.98
53671;BME280;39571;48.612;8.088;2022-10-18T01:33:38;100695.25;;;22.15;62.02
53671;BME280;39571;48.612;8.088;2022-10-18T01:36:13;100707.81;;;22.13;61.99
53671;BME280;39571;48.612;8.088;2022-10-18T01:38:39;100709.38;;;22.17;61.86
53671;BME280;39571;48.612;8.088;2022-10-18T01:41:07;100700.59;;;22.15;61.82
53671;BME280;39571;48.612;8.088;2022-10-18T01:43:36;100698.72;;;22.17;61.60
53671;BME280;39571;48.612;8.088;2022-10-18T01:46:02;100692.59;;;22.15;61.68
53671;BME280;39571;48.612;8.088;2022-10-18T01:48:29;100698.72;;;22.17;61.73
53671;BME280;39571;48.612;8.088;2022-10-18T01:50:55;100693.53;;;22.14;61.94
53671;BME280;39571;48.612;8.088;2022-10-18T01:53:26;100693.38;;;22.17;61.72
53671;BME280;39571;48.612;8.088;2022-10-18T01:56:09;100685.47;;;22.15;61.70
53671;BME280;39571;48.612;8.088;2022-10-18T02:01:38;100677.66;;;22.11;61.93
53671;BME280;39571;48.612;8.088;2022-10-18T02:04:21;100683.00;;;22.11;61.79
53671;BME280;39571;48.612;8.088;2022-10-18T02:06:54;100672.34;;;22.11;61.78
53671;BME280;39571;48.612;8.088;2022-10-18T02:09:34;100672.44;;;22.09;61.72
53671;BME280;39571;48.612;8.088;2022-10-18T02:12:04;100668.91;;;22.09;61.79
53671;BME280;39571;48.612;8.088;2022-10-18T02:14:32;100666.13;;;22.10;61.80
53671;BME280;39571;48.612;8.088;2022-10-18T02:16:58;100665.28;;;22.10;61.70
53671;BME280;39571;48.612;8.088;2022-10-18T02:19:27;100663.41;;;22.12;61.61
53671;BME280;39571;48.612;8.088;2022-10-18T02:21:57;100664.44;;;22.09;61.74
53671;BME280;39571;48.612;8.088;2022-10-18T02:24:26;100656.34;;;22.11;61.50
53671;BME280;39571;48.612;8.088;2022-10-18T02:26:52;100656.34;;;22.11;61.69
53671;BME280;39571;48.612;8.088;2022-10-18T02:29:17;100651.88;;;22.11;61.58
53671;BME280;39571;48.612;8.088;2022-10-18T02:31:45;100648.50;;;22.08;61.63
53671;BME280;39571;48.612;8.088;2022-10-18T02:34:29;100649.50;;;22.05;61.49
53671;BME280;39571;48.612;8.088;2022-10-18T02:36:59;100649.28;;;22.10;61.55
53671;BME280;39571;48.612;8.088;2022-10-18T02:39:29;100648.44;;;22.09;61.76
53671;BME280;39571;48.612;8.088;2022-10-18T02:41:55;100645.81;;;22.08;61.56
53671;BME280;39571;48.612;8.088;2022-10-18T02:44:21;100647.72;;;22.06;61.45
53671;BME280;39571;48.612;8.088;2022-10-18T02:46:46;100650.28;;;22.07;61.44
53671;BME280;39571;48.612;8.088;2022-10-18T02:49:12;100643.94;;;22.10;61.34
53671;BME280;39571;48.612;8.088;2022-10-18T02:51:37;100641.38;;;22.08;61.26
53671;BME280;39571;48.612;8.088;2022-10-18T02:54:02;100658.28;;;22.07;61.23
53671;BME280;39571;48.612;8.088;2022-10-18T02:56:28;100652.91;;;22.09;61.25
53671;BME280;39571;48.612;8.088;2022-10-18T02:58:53;100643.25;;;22.06;61.06
53671;BME280;39571;48.612;8.088;2022-10-18T03:01:19;100642.28;;;22.07;61.10
53671;BME280;39571;48.612;8.088;2022-10-18T03:03:44;100648.50;;;22.08;60.95
53671;BME280;39571;48.612;8.088;2022-10-18T03:06:09;100639.78;;;22.04;61.05
53671;BME280;39571;48.612;8.088;2022-10-18T03:08:35;100646.75;;;22.07;61.11
53671;BME280;39571;48.612;8.088;2022-10-18T03:11:00;100654.75;;;22.07;61.08
53671;BME280;39571;48.612;8.088;2022-10-18T03:13:26;100653.03;;;22.06;61.04
53671;BME280;39571;48.612;8.088;2022-10-18T03:15:51;100656.63;;;22.05;60.99
53671;BME280;39571;48.612;8.088;2022-10-18T03:18:16;100653.03;;;22.06;61.01
53671;BME280;39571;48.612;8.088;2022-10-18T03:20:42;100653.03;;;22.06;60.91
53671;BME280;39571;48.612;8.088;2022-10-18T03:23:08;100661.81;;;22.08;61.00
53671;BME280;39571;48.612;8.088;2022-10-18T03:25:33;100663.84;;;22.03;60.96
53671;BME280;39571;48.612;8.088;2022-10-18T03:27:59;100661.97;;;22.05;61.00
53671;BME280;39571;48.612;8.088;2022-10-18T03:30:24;100665.56;;;22.04;60.98
53671;BME280;39571;48.612;8.088;2022-10-18T03:32:49;100669.03;;;22.06;61.05
53671;BME280;39571;48.612;8.088;2022-10-18T03:35:15;100674.38;;;22.06;60.96
53671;BME280;39571;48.612;8.088;2022-10-18T03:37:40;100676.06;;;22.07;60.89
53671;BME280;39571;48.612;8.088;2022-10-18T03:40:06;100674.38;;;22.06;61.26
53671;BME280;39571;48.612;8.088;2022-10-18T03:42:32;100676.59;;;22.15;61.41
53671;BME280;39571;48.612;8.088;2022-10-18T03:44:57;100675.22;;;22.25;61.78
53671;BME280;39571;48.612;8.088;2022-10-18T03:47:22;100686.06;;;22.41;63.09
53671;BME280;39571;48.612;8.088;2022-10-18T03:49:48;100686.91;;;22.41;64.25
53671;BME280;39571;48.612;8.088;2022-10-18T03:52:13;100688.50;;;22.45;64.17
53671;BME280;39571;48.612;8.088;2022-10-18T03:54:38;100700.13;;;22.44;64.84
53671;BME280;39571;48.612;8.088;2022-10-18T03:57:04;100693.84;;;22.45;65.00
53671;BME280;39571;48.612;8.088;2022-10-18T03:59:29;100707.13;;;22.47;65.04
53671;BME280;39571;48.612;8.088;2022-10-18T04:01:54;100698.25;;;22.46;65.03
53671;BME280;39571;48.612;8.088;2022-10-18T04:04:20;100704.34;;;22.48;64.94
53671;BME280;39571;48.612;8.088;2022-10-18T04:06:45;100705.16;;;22.50;64.72
53671;BME280;39571;48.612;8.088;2022-10-18T04:09:10;100705.94;;;22.52;64.63
53671;BME280;39571;48.612;8.088;2022-10-18T04:11:36;100713.16;;;22.50;64.80
53671;BME280;39571;48.612;8.088;2022-10-18T04:14:01;100710.88;;;22.61;64.59
53671;BME280;39571;48.612;8.088;2022-10-18T04:16:26;100708.84;;;22.67;64.87
53671;BME280;39571;48.612;8.088;2022-10-18T04:18:52;100711.72;;;22.81;64.94
53671;BME280;39571;48.612;8.088;2022-10-18T04:21:17;100709.13;;;22.79;65.69
53671;BME280;39571;48.612;8.088;2022-10-18T04:23:42;100706.97;;;22.87;65.36
53671;BME280;39571;48.612;8.088;2022-10-18T04:26:08;100701.31;;;22.93;64.98
53671;BME280;39571;48.612;8.088;2022-10-18T04:28:34;100696.69;;;22.97;64.45
53671;BME280;39571;48.612;8.088;2022-10-18T04:30:59;100697.41;;;23.00;64.56
53671;BME280;39571;48.612;8.088;2022-10-18T04:33:25;100698.13;;;23.04;64.63
53671;BME280;39571;48.612;8.088;2022-10-18T04:35:51;100704.88;;;23.11;64.26
53671;BME280;39571;48.612;8.088;2022-10-18T04:38:17;100703.22;;;23.08;64.09
53671;BME280;39571;48.612;8.088;2022-10-18T04:40:42;100708.34;;;23.13;63.59
53671;BME280;39571;48.612;8.088;2022-10-18T04:43:08;100709.25;;;22.95;63.98
53671;BME280;39571;48.612;8.088;2022-10-18T04:45:33;100712.66;;;22.80;62.31
53671;BME280;39571;48.612;8.088;2022-10-18T04:47:58;100707.97;;;22.66;62.59
53671;BME280;39571;48.612;8.088;2022-10-18T04:50:24;100705.66;;;22.58;62.00
53671;BME280;39571;48.612;8.088;2022-10-18T04:52:49;100706.09;;;22.49;62.30
53671;BME280;39571;48.612;8.088;2022-10-18T04:55:14;100709.84;;;22.45;62.04
53671;BME280;39571;48.612;8.088;2022-10-18T04:57:40;100704.03;;;22.37;61.53
53671;BME280;39571;48.612;8.088;2022-10-18T05:00:05;100709.47;;;22.34;61.66
53671;BME280;39571;48.612;8.088;2022-10-18T05:02:31;100708.75;;;22.31;61.42
53671;BME280;39571;48.612;8.088;2022-10-18T05:04:56;100708.06;;;22.27;61.43
53671;BME280;39571;48.612;8.088;2022-10-18T05:07:21;100707.25;;;22.25;61.22
53671;BME280;39571;48.612;8.088;2022-10-18T05:09:47;100714.47;;;22.23;61.02
53671;BME280;39571;48.612;8.088;2022-10-18T05:12:12;100713.66;;;22.21;61.12
53671;BME280;39571;48.612;8.088;2022-10-18T05:14:37;100705.78;;;22.18;61.15
53671;BME280;39571;48.612;8.088;2022-10-18T05:17:03;100708.59;;;22.15;60.87
53671;BME280;39571;48.612;8.088;2022-10-18T05:19:28;100711.28;;;22.15;61.08
53671;BME280;39571;48.612;8.088;2022-10-18T05:21:53;100715.81;;;22.13;60.91
53671;BME280;39571;48.612;8.088;2022-10-18T05:24:18;100711.41;;;22.12;60.88
53671;BME280;39571;48.612;8.088;2022-10-18T05:26:44;100712.00;;;22.19;60.61
53671;BME280;39571;48.612;8.088;2022-10-18T05:29:09;100708.53;;;22.17;61.22
53671;BME280;39571;48.612;8.088;2022-10-18T05:31:35;100707.69;;;22.16;61.11
53671;BME280;39571;48.612;8.088;2022-10-18T05:34:00;100710.47;;;22.13;61.21
53671;BME280;39571;48.612;8.088;2022-10-18T05:36:26;100706.22;;;22.09;61.20
53671;BME280;39571;48.612;8.088;2022-10-18T05:38:51;100691.25;;;22.06;60.99
53671;BME280;39571;48.612;8.088;2022-10-18T05:41:18;100702.88;;;22.04;61.14
53671;BME280;39571;48.612;8.088;2022-10-18T05:43:43;100697.56;;;22.04;61.08
53671;BME280;39571;48.612;8.088;2022-10-18T05:46:09;100701.97;;;22.05;60.77
53671;BME280;39571;48.612;8.088;2022-10-18T05:48:35;100699.28;;;22.05;60.84
53671;BME280;39571;48.612;8.088;2022-10-18T05:51:00;100694.09;;;22.02;60.73
53671;BME280;39571;48.612;8.088;2022-10-18T05:53:26;100693.22;;;22.01;60.83
53671;BME280;39571;48.612;8.088;2022-10-18T05:55:52;100695.03;;;22.01;60.83
53671;BME280;39571;48.612;8.088;2022-10-18T05:58:17;100695.94;;;22.00;60.72
53671;BME280;39571;48.612;8.088;2022-10-18T06:00:42;100702.09;;;22.02;60.60
53671;BME280;39571;48.612;8.088;2022-10-18T06:03:09;100694.25;;;21.99;60.59
53671;BME280;39571;48.612;8.088;2022-10-18T06:05:34;100693.38;;;21.98;60.61
53671;BME280;39571;48.612;8.088;2022-10-18T06:07:59;100695.94;;;22.00;60.56
53671;BME280;39571;48.612;8.088;2022-10-18T06:10:25;100697.69;;;22.01;60.23
53671;BME280;39571;48.612;8.088;2022-10-18T06:12:50;100694.25;;;21.99;60.49
53671;BME280;39571;48.612;8.088;2022-10-18T06:15:16;100693.53;;;21.95;60.65
53671;BME280;39571;48.612;8.088;2022-10-18T06:17:41;100703.31;;;21.95;60.52
53671;BME280;39571;48.612;8.088;2022-10-18T06:20:07;100709.44;;;21.97;60.61
53671;BME280;39571;48.612;8.088;2022-10-18T06:22:32;100715.72;;;21.96;60.59
53671;BME280;39571;48.612;8.088;2022-10-18T06:24:58;100720.09;;;21.97;60.49
53671;BME280;39571;48.612;8.088;2022-10-18T06:27:23;100728.09;;;21.97;60.58
53671;BME280;39571;48.612;8.088;2022-10-18T06:29:49;100722.75;;;21.97;60.55
53671;BME280;39571;48.612;8.088;2022-10-18T06:32:14;100713.97;;;21.95;60.46
53671;BME280;39571;48.612;8.088;2022-10-18T06:34:40;100718.25;;;21.99;60.50
53671;BME280;39571;48.612;8.088;2022-10-18T06:37:05;100728.97;;;21.97;60.43
53671;BME280;39571;48.612;8.088;2022-10-18T06:39:30;100730.75;;;21.97;60.22
53671;BME280;39571;48.612;8.088;2022-10-18T06:41:56;100738.88;;;21.94;60.44
53671;BME280;39571;48.612;8.088;2022-10-18T06:44:21;100737.16;;;21.93;60.32
53671;BME280;39571;48.612;8.088;2022-10-18T06:46:47;100735.31;;;21.95;60.51
53671;BME280;39571;48.612;8.088;2022-10-18T06:49:14;100742.38;;;21.96;60.29
53671;BME280;39571;48.612;8.088;2022-10-18T06:51:40;100759.16;;;21.98;60.28
53671;BME280;39571;48.612;8.088;2022-10-18T06:54:06;100754.59;;;22.00;59.95
53671;BME280;39571;48.612;8.088;2022-10-18T06:56:32;100765.28;;;22.00;60.23
53671;BME280;39571;48.612;8.088;2022-10-18T06:58:58;100770.59;;;22.00;60.18
53671;BME280;39571;48.612;8.088;2022-10-18T07:01:23;100771.47;;;22.00;60.12
53671;BME280;39571;48.612;8.088;2022-10-18T07:03:51;100775.09;;;21.99;60.11
53671;BME280;39571;48.612;8.088;2022-10-18T07:06:18;100777.81;;;21.98;59.98
53671;BME280;39571;48.612;8.088;2022-10-18T07:08:45;100776.06;;;21.97;60.20
53671;BME280;39571;48.612;8.088;2022-10-18T07:11:16;100777.81;;;21.98;60.29
53671;BME280;39571;48.612;8.088;2022-10-18T07:13:42;100781.53;;;21.94;60.35
53671;BME280;39571;48.612;8.088;2022-10-18T07:16:12;100781.53;;;21.94;60.31
53671;BME280;39571;48.612;8.088;2022-10-18T07:18:40;100791.41;;;21.92;60.34
53671;BME280;39571;48.612;8.088;2022-10-18T07:21:17;100800.28;;;21.92;60.38
53671;BME280;39571;48.612;8.088;2022-10-18T07:23:43;100804.75;;;21.92;60.44
53671;BME280;39571;48.612;8.088;2022-10-18T07:26:22;100809.22;;;21.91;60.35
53671;BME280;39571;48.612;8.088;2022-10-18T07:28:51;100817.25;;;21.90;60.39
53671;BME280;39571;48.612;8.088;2022-10-18T07:31:18;100823.41;;;21.92;60.45
53671;BME280;39571;48.612;8.088;2022-10-18T07:33:43;100823.56;;;21.87;60.49
53671;BME280;39571;48.612;8.088;2022-10-18T07:36:10;100830.63;;;21.88;60.47
53671;BME280;39571;48.612;8.088;2022-10-18T07:38:36;100828.84;;;21.89;60.53
53671;BME280;39571;48.612;8.088;2022-10-18T07:41:03;100831.50;;;21.89;60.61
53671;BME280;39571;48.612;8.088;2022-10-18T07:43:30;100835.22;;;21.85;60.67
53671;BME280;39571;48.612;8.088;2022-10-18T07:45:58;100835.22;;;21.85;60.66
53671;BME280;39571;48.612;8.088;2022-10-18T07:48:24;100835.22;;;21.85;60.66
53671;BME280;39571;48.612;8.088;2022-10-18T07:50:50;100833.34;;;21.87;60.62
53671;BME280;39571;48.612;8.088;2022-10-18T07:53:15;100838.69;;;21.87;60.71
53671;BME280;39571;48.612;8.088;2022-10-18T07:55:41;100833.25;;;21.90;60.60
53671;BME280;39571;48.612;8.088;2022-10-18T07:58:07;100838.56;;;21.90;60.45
53671;BME280;39571;48.612;8.088;2022-10-18T08:00:32;100841.94;;;21.95;60.44
53671;BME280;39571;48.612;8.088;2022-10-18T08:02:58;100839.25;;;21.95;60.13
53671;BME280;39571;48.612;8.088;2022-10-18T08:05:25;100844.41;;;21.99;60.35
53671;BME280;39571;48.612;8.088;2022-10-18T08:07:51;100843.69;;;21.96;60.22
53671;BME280;39571;48.612;8.088;2022-10-18T08:10:17;100841.94;;;21.95;60.24
53671;BME280;39571;48.612;8.088;2022-10-18T08:12:42;100846.53;;;21.91;60.48
53671;BME280;39571;48.612;8.088;2022-10-18T08:15:08;100840.31;;;21.91;60.60
53671;BME280;39571;48.612;8.088;2022-10-18T08:17:33;100846.63;;;21.88;60.54
53671;BME280;39571;48.612;8.088;2022-10-18T08:19:59;100861.75;;;21.88;60.50
53671;BME280;39571;48.612;8.088;2022-10-18T08:22:24;100867.22;;;21.85;60.73
53671;BME280;39571;48.612;8.088;2022-10-18T08:24:49;100869.06;;;21.83;60.71
53671;BME280;39571;48.612;8.088;2022-10-18T08:27:15;100874.28;;;21.86;60.60
53671;BME280;39571;48.612;8.088;2022-10-18T08:29:41;100875.06;;;21.88;60.78
53671;BME280;39571;48.612;8.088;2022-10-18T08:32:06;100877.63;;;21.91;60.51
53671;BME280;39571;48.612;8.088;2022-10-18T08:34:34;100875.91;;;21.90;60.57
53671;BME280;39571;48.612;8.088;2022-10-18T08:37:01;100884.72;;;21.92;60.55
53671;BME280;39571;48.612;8.088;2022-10-18T08:39:27;100869.38;;;21.97;60.28
53671;BME280;39571;48.612;8.088;2022-10-18T08:44:31;100880.72;;;22.02;60.18
53671;BME280;39571;48.612;8.088;2022-10-18T08:47:03;100877.00;;;22.06;59.88
53671;BME280;39571;48.612;8.088;2022-10-18T08:49:38;100881.94;;;22.15;59.48
53671;BME280;39571;48.612;8.088;2022-10-18T08:52:33;100876.53;;;22.17;59.35
53671;BME280;39571;48.612;8.088;2022-10-18T08:55:05;100875.72;;;22.14;59.43
53671;BME280;39571;48.612;8.088;2022-10-18T08:57:34;100882.19;;;22.29;58.97
53671;BME280;39571;48.612;8.088;2022-10-18T09:00:04;100876.53;;;23.52;55.57
53671;BME280;39571;48.612;8.088;2022-10-18T09:05:28;100873.94;;;23.13;56.26
53671;BME280;39571;48.612;8.088;2022-10-18T09:08:10;100874.34;;;23.04;56.66
53671;BME280;39571;48.612;8.088;2022-10-18T09:10:48;100867.72;;;22.94;56.77
53671;BME280;39571;48.612;8.088;2022-10-18T09:15:58;100867.56;;;22.78;58.00
53671;BME280;39571;48.612;8.088;2022-10-18T09:21:53;100860.53;;;22.96;57.54
53671;BME280;39571;48.612;8.088;2022-10-18T09:24:38;100864.13;;;22.95;57.57
53671;BME280;39571;48.612;8.088;2022-10-18T09:27:17;100865.19;;;22.91;57.75
53671;BME280;39571;48.612;8.088;2022-10-18T09:29:53;100871.59;;;22.87;57.86
53671;BME280;39571;48.612;8.088;2022-10-18T09:32:47;100873.63;;;22.82;58.27
53671;BME280;39571;48.612;8.088;2022-10-18T09:35:18;100880.84;;;22.80;58.45
53671;BME280;39571;48.612;8.088;2022-10-18T09:37:46;100879.13;;;22.79;58.85
53671;BME280;39571;48.612;8.088;2022-10-18T09:40:23;100877.81;;;22.87;58.67
53671;BME280;39571;48.612;8.088;2022-10-18T09:42:57;100874.66;;;22.98;58.60
53671;BME280;39571;48.612;8.088;2022-10-18T09:45:35;100881.22;;;22.91;58.56
53671;BME280;39571;48.612;8.088;2022-10-18T09:50:41;100885.75;;;23.07;57.76
53671;BME280;39571;48.612;8.088;2022-10-18T09:56:17;100874.06;;;23.10;57.53
53671;BME280;39571;48.612;8.088;2022-10-18T09:58:47;100886.63;;;23.08;57.59
53671;BME280;39571;48.612;8.088;2022-10-18T10:01:19;100878.31;;;23.14;57.22
53671;BME280;39571;48.612;8.088;2022-10-18T10:03:45;100876.97;;;23.43;56.39
53671;BME280;39571;48.612;8.088;2022-10-18T10:08:35;100876.91;;;25.14;51.81
53671;BME280;39571;48.612;8.088;2022-10-18T10:11:01;100877.25;;;27.17;46.49
53671;BME280;39571;48.612;8.088;2022-10-18T10:13:26;100883.63;;;25.54;49.78
53671;BME280;39571;48.612;8.088;2022-10-18T10:15:56;100879.94;;;24.26;53.52
53671;BME280;39571;48.612;8.088;2022-10-18T10:18:28;100871.31;;;23.85;54.78
53671;BME280;39571;48.612;8.088;2022-10-18T10:20:56;100877.91;;;23.78;54.99
53671;BME280;39571;48.612;8.088;2022-10-18T10:23:27;100871.78;;;23.93;54.57
53671;BME280;39571;48.612;8.088;2022-10-18T10:25:56;100870.91;;;26.76;47.14
53671;BME280;39571;48.612;8.088;2022-10-18T10:28:26;100861.81;;;28.01;43.93
53671;BME280;39571;48.612;8.088;2022-10-18T10:30:52;100862.75;;;28.52;42.35
53671;BME280;39571;48.612;8.088;2022-10-18T10:33:33;100860.16;;;28.38;42.51
53671;BME280;39571;48.612;8.088;2022-10-18T10:36:02;100863.78;;;25.41;49.46
53671;BME280;39571;48.612;8.088;2022-10-18T10:38:29;100874.50;;;24.44;52.29
53671;BME280;39571;48.612;8.088;2022-10-18T10:40:55;100866.44;;;24.10;53.43
53671;BME280;39571;48.612;8.088;2022-10-18T10:43:35;100870.41;;;23.86;54.59
53671;BME280;39571;48.612;8.088;2022-10-18T10:46:08;100864.78;;;23.73;54.82
53671;BME280;39571;48.612;8.088;2022-10-18T10:51:08;100865.41;;;23.61;55.44
53671;BME280;39571;48.612;8.088;2022-10-18T10:53:50;100870.03;;;23.57;55.54
53671;BME280;39571;48.612;8.088;2022-10-18T10:56:25;100866.53;;;23.55;55.71
53671;BME280;39571;48.612;8.088;2022-10-18T10:58:53;100870.03;;;23.57;55.67
53671;BME280;39571;48.612;8.088;2022-10-18T11:01:31;100873.56;;;23.58;55.62
53671;BME280;39571;48.612;8.088;2022-10-18T11:04:01;100876.09;;;23.61;55.93
53671;BME280;39571;48.612;8.088;2022-10-18T11:09:00;100877.19;;;23.57;56.54
53671;BME280;39571;48.612;8.088;2022-10-18T11:11:32;100874.50;;;23.57;56.88
53671;BME280;39571;48.612;8.088;2022-10-18T11:14:25;100874.91;;;23.67;59.10
53671;BME280;39571;48.612;8.088;2022-10-18T11:17:22;100873.53;;;23.94;63.29
53671;BME280;39571;48.612;8.088;2022-10-18T11:20:04;100876.38;;;24.08;62.83
53671;BME280;39571;48.612;8.088;2022-10-18T11:25:22;100865.81;;;23.88;62.41
53671;BME280;39571;48.612;8.088;2022-10-18T11:34:03;100871.75;;;23.76;63.28
53671;BME280;39571;48.612;8.088;2022-10-18T11:44:31;100861.94;;;23.76;57.57
53671;BME280;39571;48.612;8.088;2022-10-18T11:52:55;100849.59;;;23.74;59.53
53671;BME280;39571;48.612;8.088;2022-10-18T11:55:45;100848.03;;;23.70;59.20
53671;BME280;39571;48.612;8.088;2022-10-18T12:01:22;100839.09;;;23.52;57.09
53671;BME280;39571;48.612;8.088;2022-10-18T12:04:02;100830.53;;;23.45;56.12
53671;BME280;39571;48.612;8.088;2022-10-18T12:06:33;100833.34;;;23.42;55.25
53671;BME280;39571;48.612;8.088;2022-10-18T12:09:09;100824.53;;;23.40;55.92
53671;BME280;39571;48.612;8.088;2022-10-18T12:11:44;100826.38;;;23.38;56.90
53671;BME280;39571;48.612;8.088;2022-10-18T12:14:21;100830.25;;;23.33;56.02
53671;BME280;39571;48.612;8.088;2022-10-18T12:16:48;100825.97;;;23.29;56.57
53671;BME280;39571;48.612;8.088;2022-10-18T12:19:20;100832.50;;;23.23;56.48
53671;BME280;39571;48.612;8.088;2022-10-18T12:21:47;100827.31;;;23.20;56.40
53671;BME280;39571;48.612;8.088;2022-10-18T12:24:19;100830.75;;;23.22;56.56
53671;BME280;39571;48.612;8.088;2022-10-18T12:26:49;100824.53;;;23.22;56.53
53671;BME280;39571;48.612;8.088;2022-10-18T12:29:23;100832.66;;;23.20;57.05
53671;BME280;39571;48.612;8.088;2022-10-18T12:32:02;100821.16;;;23.18;56.67
53671;BME280;39571;48.612;8.088;2022-10-18T12:35:15;100828.88;;;23.24;56.74
53671;BME280;39571;48.612;8.088;2022-10-18T12:40:20;100819.28;;;23.20;56.76
53671;BME280;39571;48.612;8.088;2022-10-18T12:42:49;100816.31;;;23.26;56.61
53671;BME280;39571;48.612;8.088;2022-10-18T12:47:44;100801.88;;;23.30;56.90
53671;BME280;39571;48.612;8.088;2022-10-18T12:50:30;100807.06;;;23.33;56.87
53671;BME280;39571;48.612;8.088;2022-10-18T12:55:31;100801.00;;;23.30;57.04
53671;BME280;39571;48.612;8.088;2022-10-18T13:14:06;100795.97;;;23.24;57.82
53671;BME280;39571;48.612;8.088;2022-10-18T13:24:36;100790.63;;;23.24;57.74
53671;BME280;39571;48.612;8.088;2022-10-18T13:27:17;100788.94;;;23.21;57.87
53671;BME280;39571;48.612;8.088;2022-10-18T13:32:50;100791.72;;;23.20;58.07
53671;BME280;39571;48.612;8.088;2022-10-18T13:38:40;100801.00;;;23.30;58.67
53671;BME280;39571;48.612;8.088;2022-10-18T13:41:13;100803.69;;;23.30;58.42
53671;BME280;39571;48.612;8.088;2022-10-18T13:46:19;100798.56;;;23.25;58.57
53671;BME280;39571;48.612;8.088;2022-10-18T13:48:46;100794.13;;;23.24;58.66
53671;BME280;39571;48.612;8.088;2022-10-18T13:56:45;100794.78;;;23.29;59.00
53671;BME280;39571;48.612;8.088;2022-10-18T13:59:28;100786.13;;;23.24;58.38
53671;BME280;39571;48.612;8.088;2022-10-18T14:05:17;100798.56;;;23.25;58.85
53671;BME280;39571;48.612;8.088;2022-10-18T14:07:45;100795.88;;;23.25;58.63
53671;BME280;39571;48.612;8.088;2022-10-18T14:10:39;100801.06;;;23.28;58.37
53671;BME280;39571;48.612;8.088;2022-10-18T14:13:16;100804.59;;;23.29;58.72
53671;BME280;39571;48.612;8.088;2022-10-18T14:15:48;100798.09;;;23.34;59.17
53671;BME280;39571;48.612;8.088;2022-10-18T14:18:19;100798.72;;;23.41;59.26
53671;BME280;39571;48.612;8.088;2022-10-18T14:20:51;100795.94;;;23.42;59.34
53671;BME280;39571;48.612;8.088;2022-10-18T14:23:22;100804.91;;;23.41;59.35
53671;BME280;39571;48.612;8.088;2022-10-18T14:25:48;100803.31;;;23.37;59.57
53671;BME280;39571;48.612;8.088;2022-10-18T14:28:21;100805.16;;;23.35;59.37
53671;BME280;39571;48.612;8.088;2022-10-18T14:31:03;100801.00;;;23.30;59.62
53671;BME280;39571;48.612;8.088;2022-10-18T14:34:09;100802.03;;;23.27;59.78
53671;BME280;39571;48.612;8.088;2022-10-18T14:36:39;100803.03;;;23.25;59.35
53671;BME280;39571;48.612;8.088;2022-10-18T14:39:06;100799.47;;;23.24;59.34
53671;BME280;39571;48.612;8.088;2022-10-18T14:41:49;100799.00;;;23.16;59.05
53671;BME280;39571;48.612;8.088;2022-10-18T14:44:23;100792.38;;;23.06;58.81
53671;BME280;39571;48.612;8.088;2022-10-18T14:47:08;100797.72;;;23.06;58.88
53671;BME280;39571;48.612;8.088;2022-10-18T14:49:42;100793.66;;;23.16;58.49
53671;BME280;39571;48.612;8.088;2022-10-18T14:52:13;100800.72;;;23.17;58.73
53671;BME280;39571;48.612;8.088;2022-10-18T14:54:39;100789.31;;;23.13;58.37
53671;BME280;39571;48.612;8.088;2022-10-18T14:57:05;100790.19;;;23.14;58.47
53671;BME280;39571;48.612;8.088;2022-10-18T14:59:35;100788.47;;;23.13;58.37